Time;durP1;ratioP1;P1;durP2;ratioP2;P2;SDS_P1;SDS_P2;PMS_P1;PMS_P2;Temp;Humidity;BMP_temperature;BMP_pressure;BME280_temperature;BME280_humidity;BME280_pressure;Samples;Min_cycle;Max_cycle;Signal;HPM_P1;HPM_P2
2023/01/09 00:01:39;;;;;;;;;;;7.90;99.90;;;;;;5053929;28;19908;-54
2023/01/09 00:04:04;;;;;;;;;;;7.90;99.90;;;;;;5053845;28;19935;-52
2023/01/09 00:06:30;;;;;;;;;;;7.90;99.90;;;;;;5053811;28;20424;-50
2023/01/09 00:08:56;;;;;;;;;;;7.90;99.90;;;;;;5053687;28;19905;-52
2023/01/09 00:11:22;;;;;;;;;;;7.90;99.90;;;;;;5053825;28;19909;-51
2023/01/09 00:13:47;;;;;;;;;;;7.90;99.90;;;;;;5053719;28;20323;-52
2023/01/09 00:16:13;;;;;;;;;;;7.80;99.90;;;;;;5052579;28;19931;-50
2023/01/09 00:18:38;;;;;;;;;;;7.80;99.90;;;;;;5053344;28;19916;-51
2023/01/09 00:21:05;;;;;;;;;;;7.90;99.90;;;;;;5053800;28;19954;-53
2023/01/09 00:23:31;;;;;;;;;;;7.90;99.90;;;;;;5053799;28;19915;-50
2023/01/09 00:26:04;;;;;;;;;;;7.80;99.90;;;;;;5053688;28;19909;-53
2023/01/09 00:28:30;;;;;;;;;;;7.80;99.90;;;;;;5053370;28;19962;-53
2023/01/09 00:30:56;;;;;;;;;;;7.80;99.90;;;;;;5053616;28;20324;-53
2023/01/09 00:33:27;;;;;;;;;;;7.70;99.90;;;;;;5053582;28;19962;-50
2023/01/09 00:35:52;;;;;;;;;;;7.70;99.90;;;;;;5053463;28;20008;-51
2023/01/09 00:38:18;;;;;;;;;;;7.70;99.90;;;;;;5053304;28;19999;-52
2023/01/09 00:40:44;;;;;;;;;;;7.60;99.90;;;;;;5052987;28;20288;-52
2023/01/09 00:43:09;;;;;;;;;;;7.60;99.90;;;;;;5053412;28;19909;-51
2023/01/09 00:45:35;;;;;;;;;;;7.60;99.90;;;;;;5053207;28;20371;-50
2023/01/09 00:48:03;;;;;;;;;;;7.50;99.90;;;;;;5053376;28;19957;-53
2023/01/09 00:50:30;;;;;;;;;;;7.50;99.90;;;;;;5052951;28;19996;-51
2023/01/09 00:52:56;;;;;;;;;;;7.50;99.90;;;;;;5053049;28;19920;-51
2023/01/09 00:55:22;;;;;;;;;;;7.40;99.90;;;;;;5052773;28;19912;-53
2023/01/09 00:57:48;;;;;;;;;;;7.50;99.90;;;;;;5052922;28;19963;-50
2023/01/09 01:00:14;;;;;;;;;;;7.50;99.90;;;;;;5052603;28;20469;-51
2023/01/09 01:02:39;;;;;;;;;;;7.40;99.90;;;;;;5052849;28;19963;-50
2023/01/09 01:07:49;;;;;;;;;;;7.40;99.90;;;;;;5052474;28;20288;-50
2023/01/09 01:10:18;;;;;;;;;;;7.40;99.90;;;;;;5052739;28;19912;-52
2023/01/09 01:12:45;;;;;;;;;;;7.30;99.90;;;;;;5052651;28;19931;-51
2023/01/09 01:15:11;;;;;;;;;;;7.30;99.90;;;;;;5052335;28;19912;-53
2023/01/09 01:17:38;;;;;;;;;;;7.20;99.90;;;;;;5052340;28;20039;-52
2023/01/09 01:20:04;;;;;;;;;;;7.20;99.90;;;;;;5052125;28;19952;-50
2023/01/09 01:22:30;;;;;;;;;;;7.20;99.90;;;;;;5052500;28;19943;-51
2023/01/09 01:24:55;;;;;;;;;;;7.20;99.90;;;;;;5052454;28;19967;-50
2023/01/09 01:27:21;;;;;;;;;;;7.10;99.90;;;;;;5051694;28;20050;-53
2023/01/09 01:29:47;;;;;;;;;;;7.10;99.90;;;;;;5051962;28;19909;-50
2023/01/09 01:32:12;;;;;;;;;;;7.10;99.90;;;;;;5052378;28;20293;-52
2023/01/09 01:34:38;;;;;;;;;;;7.10;99.90;;;;;;5051998;28;19912;-50
2023/01/09 01:37:04;;;;;;;;;;;7.10;99.90;;;;;;5052156;28;19913;-51
2023/01/09 01:39:30;;;;;;;;;;;7.10;99.90;;;;;;5051825;28;20016;-49
2023/01/09 01:41:55;;;;;;;;;;;7.10;99.90;;;;;;5051914;28;19913;-52
2023/01/09 01:44:40;;;;;;;;;;;7.00;99.90;;;;;;5051945;28;19908;-52
2023/01/09 01:47:05;;;;;;;;;;;7.10;99.90;;;;;;5051646;28;19912;-50
2023/01/09 01:49:31;;;;;;;;;;;7.00;99.90;;;;;;5051621;28;20079;-51
2023/01/09 01:51:58;;;;;;;;;;;7.10;99.90;;;;;;5051898;28;19909;-50
2023/01/09 01:54:25;;;;;;;;;;;7.10;99.90;;;;;;5051601;28;19966;-50
2023/01/09 01:56:55;;;;;;;;;;;7.10;99.90;;;;;;5051577;28;19962;-49
2023/01/09 01:59:24;;;;;;;;;;;7.00;99.90;;;;;;5051427;28;20361;-53
2023/01/09 02:01:56;;;;;;;;;;;7.10;99.90;;;;;;5051521;28;19909;-51
2023/01/09 02:04:21;;;;;;;;;;;7.10;99.90;;;;;;5051637;28;19913;-52
2023/01/09 02:06:48;;;;;;;;;;;7.10;99.90;;;;;;5051373;28;20007;-48
2023/01/09 02:09:14;;;;;;;;;;;7.10;99.90;;;;;;5051597;28;20038;-50
2023/01/09 02:11:43;;;;;;;;;;;7.10;99.90;;;;;;5051528;28;19914;-51
2023/01/09 02:14:09;;;;;;;;;;;7.10;99.90;;;;;;5051346;28;19909;-53
2023/01/09 02:17:01;;;;;;;;;;;7.10;99.90;;;;;;5051166;28;19920;-49
2023/01/09 02:19:45;;;;;;;;;;;7.10;99.90;;;;;;5051373;28;19948;-49
2023/01/09 02:22:35;;;;;;;;;;;7.10;99.90;;;;;;5051375;28;19909;-48
2023/01/09 02:25:07;;;;;;;;;;;7.10;99.90;;;;;;5051238;28;19955;-52
2023/01/09 02:27:32;;;;;;;;;;;7.10;99.90;;;;;;5051032;28;19931;-50
2023/01/09 02:29:58;;;;;;;;;;;7.00;99.90;;;;;;5051183;28;20388;-49
2023/01/09 02:32:29;;;;;;;;;;;7.00;99.90;;;;;;5051273;28;19908;-53
2023/01/09 02:35:01;;;;;;;;;;;7.00;99.90;;;;;;5050993;28;20534;-49
2023/01/09 02:37:50;;;;;;;;;;;7.00;99.90;;;;;;5050716;28;19909;-50
2023/01/09 02:40:34;;;;;;;;;;;6.90;99.90;;;;;;5050701;28;19913;-49
2023/01/09 02:43:01;;;;;;;;;;;6.90;99.90;;;;;;5051073;28;19908;-48
2023/01/09 02:45:26;;;;;;;;;;;7.00;99.90;;;;;;5050990;28;19909;-49
2023/01/09 02:47:52;;;;;;;;;;;7.00;99.90;;;;;;5050811;28;19908;-48
2023/01/09 02:50:38;;;;;;;;;;;6.90;99.90;;;;;;5050595;28;19909;-52
2023/01/09 02:53:06;;;;;;;;;;;7.00;99.90;;;;;;5050356;28;19909;-48
2023/01/09 02:55:56;;;;;;;;;;;7.00;99.90;;;;;;5050927;28;19912;-49
2023/01/09 02:58:40;;;;;;;;;;;7.00;99.90;;;;;;5050777;28;19931;-50
2023/01/09 03:01:06;;;;;;;;;;;7.00;99.90;;;;;;5051084;28;19913;-51
2023/01/09 03:03:39;;;;;;;;;;;7.00;99.90;;;;;;5050766;28;19977;-51
2023/01/09 03:06:10;;;;;;;;;;;7.00;99.90;;;;;;5061996;23;19921;-56
2023/01/09 03:08:40;;;;;;;;;;;7.00;99.90;;;;;;5050178;28;20554;-56
2023/01/09 03:11:07;;;;;;;;;;;7.00;99.90;;;;;;5051150;28;19932;-54
2023/01/09 03:13:53;;;;;;;;;;;7.00;99.90;;;;;;5050788;28;19959;-55
2023/01/09 03:16:20;;;;;;;;;;;6.90;99.90;;;;;;5049750;28;19912;-56
2023/01/09 03:18:47;;;;;;;;;;;7.00;99.90;;;;;;5050498;28;19909;-53
2023/01/09 03:21:13;;;;;;;;;;;6.90;99.90;;;;;;5050698;28;19920;-56
2023/01/09 03:23:50;;;;;;;;;;;6.90;99.90;;;;;;5050564;28;19909;-57
2023/01/09 03:26:16;;;;;;;;;;;6.90;99.90;;;;;;5050470;28;19909;-53
2023/01/09 03:28:42;;;;;;;;;;;6.90;99.90;;;;;;5050333;28;20332;-56
2023/01/09 03:31:08;;;;;;;;;;;6.80;99.90;;;;;;5050542;28;19909;-56
2023/01/09 03:33:33;;;;;;;;;;;6.80;99.90;;;;;;5050595;28;19959;-55
2023/01/09 03:35:59;;;;;;;;;;;6.70;99.90;;;;;;5050337;28;19966;-53
2023/01/09 03:38:25;;;;;;;;;;;6.70;99.90;;;;;;5050296;28;20027;-52
2023/01/09 03:40:50;;;;;;;;;;;6.70;99.90;;;;;;5050416;28;20269;-55
2023/01/09 03:43:16;;;;;;;;;;;6.60;99.90;;;;;;5050345;28;19916;-55
2023/01/09 03:45:42;;;;;;;;;;;6.60;99.90;;;;;;5050469;28;20403;-55
2023/01/09 03:48:07;;;;;;;;;;;6.60;99.90;;;;;;5050691;28;19912;-55
2023/01/09 03:50:33;;;;;;;;;;;6.70;99.90;;;;;;5052388;28;19961;-54
2023/01/09 03:52:59;;;;;;;;;;;6.70;99.90;;;;;;5053925;28;19909;-52
2023/01/09 03:55:24;;;;;;;;;;;6.60;99.90;;;;;;5053805;28;19920;-53
2023/01/09 03:57:51;;;;;;;;;;;6.60;99.90;;;;;;5053814;28;20266;-53
2023/01/09 04:00:18;;;;;;;;;;;6.50;99.90;;;;;;5053725;28;20270;-56
2023/01/09 04:02:43;;;;;;;;;;;6.50;99.90;;;;;;5053942;28;19909;-53
2023/01/09 04:05:09;;;;;;;;;;;6.40;99.90;;;;;;5053530;28;20331;-55
2023/01/09 04:07:34;;;;;;;;;;;6.40;99.90;;;;;;5053488;28;20011;-56
2023/01/09 04:10:00;;;;;;;;;;;6.30;99.90;;;;;;5053763;28;19916;-55
2023/01/09 04:12:26;;;;;;;;;;;6.30;99.90;;;;;;5053589;28;19915;-56
2023/01/09 04:14:51;;;;;;;;;;;6.30;99.90;;;;;;5053426;28;19912;-51
2023/01/09 04:17:17;;;;;;;;;;;6.20;99.90;;;;;;5053291;28;19917;-56
2023/01/09 04:19:42;;;;;;;;;;;6.20;99.90;;;;;;5053325;28;19952;-53
2023/01/09 04:22:08;;;;;;;;;;;6.20;99.90;;;;;;5053360;28;20319;-54
2023/01/09 04:24:33;;;;;;;;;;;6.10;99.90;;;;;;5053265;28;19909;-54
2023/01/09 04:26:59;;;;;;;;;;;6.10;99.90;;;;;;5053225;28;20325;-56
2023/01/09 04:29:24;;;;;;;;;;;6.10;99.90;;;;;;5053032;28;19985;-56
2023/01/09 04:31:50;;;;;;;;;;;6.00;99.90;;;;;;5053265;28;19912;-54
2023/01/09 04:34:16;;;;;;;;;;;6.00;99.90;;;;;;5053215;28;20130;-55
2023/01/09 04:36:41;;;;;;;;;;;6.00;99.90;;;;;;5052772;28;19917;-55
2023/01/09 04:39:07;;;;;;;;;;;6.00;99.90;;;;;;5052871;28;19919;-55
2023/01/09 04:41:48;;;;;;;;;;;5.90;99.90;;;;;;5053132;28;19908;-54
2023/01/09 04:44:18;;;;;;;;;;;5.90;99.90;;;;;;5052980;28;20336;-56
2023/01/09 04:46:43;;;;;;;;;;;5.90;99.90;;;;;;5052779;28;19909;-55
2023/01/09 04:49:09;;;;;;;;;;;5.90;99.90;;;;;;5052641;28;19909;-54
2023/01/09 04:51:34;;;;;;;;;;;5.80;99.90;;;;;;5052774;28;19931;-56
2023/01/09 04:54:00;;;;;;;;;;;5.80;99.90;;;;;;5052816;28;19912;-56
2023/01/09 04:56:26;;;;;;;;;;;5.80;99.90;;;;;;5052417;28;19913;-53
2023/01/09 04:58:51;;;;;;;;;;;5.80;99.90;;;;;;5052516;28;19909;-56
2023/01/09 05:01:17;;;;;;;;;;;5.70;99.90;;;;;;5051890;28;19912;-55
2023/01/09 05:03:42;;;;;;;;;;;5.70;99.90;;;;;;5052605;28;19991;-55
2023/01/09 05:06:08;;;;;;;;;;;5.70;99.90;;;;;;5052434;28;20395;-55
2023/01/09 05:08:34;;;;;;;;;;;5.70;99.90;;;;;;5052195;28;20035;-53
2023/01/09 05:10:59;;;;;;;;;;;5.70;99.90;;;;;;5052610;28;19916;-54
2023/01/09 05:13:25;;;;;;;;;;;5.70;99.90;;;;;;5052554;28;19909;-54
2023/01/09 05:15:50;;;;;;;;;;;5.70;99.90;;;;;;5052289;28;19913;-55
2023/01/09 05:18:16;;;;;;;;;;;5.90;99.90;;;;;;5052102;28;19954;-55
2023/01/09 05:20:42;;;;;;;;;;;6.00;99.90;;;;;;5052194;28;20026;-55
2023/01/09 05:23:07;;;;;;;;;;;6.00;99.90;;;;;;5052461;28;19912;-52
2023/01/09 05:25:33;;;;;;;;;;;6.00;99.90;;;;;;5052160;28;19915;-56
2023/01/09 05:28:00;;;;;;;;;;;6.10;99.90;;;;;;5052025;28;19909;-53
2023/01/09 05:30:26;;;;;;;;;;;6.10;99.90;;;;;;5051990;28;19908;-52
2023/01/09 05:32:51;;;;;;;;;;;6.20;99.90;;;;;;5051959;28;19916;-53
2023/01/09 05:35:17;;;;;;;;;;;6.20;99.90;;;;;;5052013;28;19960;-51
2023/01/09 05:37:43;;;;;;;;;;;6.20;99.90;;;;;;5051764;28;19929;-50
2023/01/09 05:40:09;;;;;;;;;;;6.30;99.90;;;;;;5052035;28;19915;-54
2023/01/09 05:42:34;;;;;;;;;;;6.30;99.90;;;;;;5051998;28;19915;-55
2023/01/09 05:45:00;;;;;;;;;;;6.40;99.90;;;;;;5051706;28;19909;-56
2023/01/09 05:47:25;;;;;;;;;;;6.40;99.90;;;;;;5051543;28;19913;-55
2023/01/09 05:49:51;;;;;;;;;;;6.50;99.90;;;;;;5051500;28;19939;-51
2023/01/09 05:52:17;;;;;;;;;;;6.50;99.90;;;;;;5051850;28;19920;-53
2023/01/09 05:54:42;;;;;;;;;;;6.60;99.90;;;;;;5051459;28;19913;-52
2023/01/09 05:57:08;;;;;;;;;;;6.60;99.90;;;;;;5051480;28;19909;-56
2023/01/09 05:59:33;;;;;;;;;;;6.60;99.90;;;;;;5051315;28;19908;-54
2023/01/09 06:01:59;;;;;;;;;;;6.50;99.90;;;;;;5051391;28;19916;-54
2023/01/09 06:04:28;;;;;;;;;;;6.60;99.90;;;;;;5051412;28;20433;-56
2023/01/09 06:06:54;;;;;;;;;;;6.70;99.90;;;;;;5051497;28;20382;-55
2023/01/09 06:09:20;;;;;;;;;;;6.70;99.90;;;;;;5051317;28;19967;-54
2023/01/09 06:11:45;;;;;;;;;;;6.70;99.90;;;;;;5051338;28;19962;-55
2023/01/09 06:14:11;;;;;;;;;;;6.70;99.90;;;;;;5051418;28;20361;-51
2023/01/09 06:16:36;;;;;;;;;;;6.70;99.90;;;;;;5050822;28;19916;-53
2023/01/09 06:19:04;;;;;;;;;;;6.80;99.90;;;;;;5050942;28;19915;-54
2023/01/09 06:21:29;;;;;;;;;;;6.80;99.90;;;;;;5051226;28;19912;-56
2023/01/09 06:23:55;;;;;;;;;;;6.80;99.90;;;;;;5051209;28;19909;-55
2023/01/09 06:26:21;;;;;;;;;;;6.80;99.90;;;;;;5050911;28;19915;-53
2023/01/09 06:28:46;;;;;;;;;;;6.80;99.90;;;;;;5051034;28;20008;-53
2023/01/09 06:31:12;;;;;;;;;;;6.80;99.90;;;;;;5050967;28;20369;-56
2023/01/09 06:33:37;;;;;;;;;;;6.80;99.90;;;;;;5051143;28;19959;-54
2023/01/09 06:36:03;;;;;;;;;;;6.80;99.90;;;;;;5050781;28;19974;-55
2023/01/09 06:38:29;;;;;;;;;;;6.80;99.90;;;;;;5050919;28;19909;-54
2023/01/09 06:40:55;;;;;;;;;;;6.90;99.90;;;;;;5050938;28;20319;-55
2023/01/09 06:43:20;;;;;;;;;;;6.90;99.90;;;;;;5050926;28;19909;-54
2023/01/09 06:45:46;;;;;;;;;;;6.90;99.90;;;;;;5050820;28;19909;-56
2023/01/09 06:48:11;;;;;;;;;;;6.90;99.90;;;;;;5050705;28;19909;-56
2023/01/09 06:50:37;;;;;;;;;;;6.90;99.90;;;;;;5050587;28;20262;-54
2023/01/09 06:53:03;;;;;;;;;;;6.90;99.90;;;;;;5050822;28;19999;-54
2023/01/09 06:55:28;;;;;;;;;;;6.90;99.90;;;;;;5050799;28;19920;-57
2023/01/09 06:57:54;;;;;;;;;;;7.00;99.90;;;;;;5050720;28;20361;-53
2023/01/09 07:00:20;;;;;;;;;;;7.10;99.90;;;;;;5050451;28;20317;-51
2023/01/09 07:02:45;;;;;;;;;;;7.10;99.90;;;;;;5050885;28;20004;-55
2023/01/09 07:05:11;;;;;;;;;;;7.10;99.90;;;;;;5050641;28;19912;-52
2023/01/09 07:07:37;;;;;;;;;;;7.10;99.90;;;;;;5050464;28;19913;-55
2023/01/09 07:10:03;;;;;;;;;;;7.20;99.90;;;;;;5050544;28;19909;-54
2023/01/09 07:12:29;;;;;;;;;;;7.20;99.90;;;;;;5050766;28;19916;-53
2023/01/09 07:14:54;;;;;;;;;;;7.20;99.90;;;;;;5050484;28;19919;-57
2023/01/09 07:17:20;;;;;;;;;;;7.30;99.90;;;;;;5050672;28;20003;-54
2023/01/09 07:19:45;;;;;;;;;;;7.30;99.90;;;;;;5050513;28;19914;-53
2023/01/09 07:22:11;;;;;;;;;;;7.20;99.90;;;;;;5049299;28;19909;-55
2023/01/09 07:24:37;;;;;;;;;;;7.30;99.90;;;;;;5051424;28;19912;-55
2023/01/09 07:27:02;;;;;;;;;;;7.30;99.90;;;;;;5054232;28;19905;-54
2023/01/09 07:29:28;;;;;;;;;;;7.30;99.90;;;;;;5054028;28;20365;-55
2023/01/09 07:31:54;;;;;;;;;;;7.30;99.90;;;;;;5054635;28;19923;-55
2023/01/09 07:34:19;;;;;;;;;;;7.30;99.90;;;;;;5054452;28;20369;-53
2023/01/09 07:36:45;;;;;;;;;;;7.30;99.90;;;;;;5054109;28;19920;-57
2023/01/09 07:39:12;;;;;;;;;;;7.30;99.90;;;;;;5053036;28;19916;-57
2023/01/09 07:41:37;;;;;;;;;;;7.30;99.90;;;;;;5054267;28;19920;-55
2023/01/09 07:44:07;;;;;;;;;;;7.30;99.90;;;;;;5052714;28;19924;-57
2023/01/09 07:46:32;;;;;;;;;;;7.30;99.90;;;;;;5053772;28;20288;-55
2023/01/09 07:48:58;;;;;;;;;;;7.20;99.90;;;;;;5054010;28;19951;-54
2023/01/09 07:51:23;;;;;;;;;;;7.30;99.90;;;;;;5054184;28;19908;-55
2023/01/09 07:53:49;;;;;;;;;;;7.20;99.90;;;;;;5054045;28;19908;-55
2023/01/09 07:56:15;;;;;;;;;;;7.20;99.90;;;;;;5053817;28;19913;-55
2023/01/09 07:58:40;;;;;;;;;;;7.10;99.90;;;;;;5053369;28;19909;-54
2023/01/09 08:01:06;;;;;;;;;;;7.00;99.90;;;;;;5053988;28;19995;-53
2023/01/09 08:03:32;;;;;;;;;;;7.00;99.90;;;;;;5053938;28;19909;-55
2023/01/09 08:05:58;;;;;;;;;;;6.90;99.90;;;;;;5053673;28;20177;-55
2023/01/09 08:08:24;;;;;;;;;;;6.90;99.90;;;;;;5053560;28;20233;-55
2023/01/09 08:10:50;;;;;;;;;;;6.90;99.90;;;;;;5053420;28;19912;-53
2023/01/09 08:13:15;;;;;;;;;;;6.80;99.90;;;;;;5053638;28;19954;-52
2023/01/09 08:15:41;;;;;;;;;;;6.80;99.90;;;;;;5053432;28;19956;-55
2023/01/09 08:18:06;;;;;;;;;;;6.70;99.90;;;;;;5053427;28;20400;-55
2023/01/09 08:20:32;;;;;;;;;;;6.90;99.90;;;;;;5053314;28;19916;-57
2023/01/09 08:22:58;;;;;;;;;;;6.90;99.90;;;;;;5053461;28;19963;-53
2023/01/09 08:25:23;;;;;;;;;;;6.90;99.90;;;;;;5053329;28;20356;-54
2023/01/09 08:27:49;;;;;;;;;;;7.00;99.90;;;;;;5053078;28;19955;-56
2023/01/09 08:30:15;;;;;;;;;;;7.10;99.90;;;;;;5053046;28;20007;-53
2023/01/09 08:32:41;;;;;;;;;;;7.20;99.90;;;;;;5052089;28;20415;-54
2023/01/09 08:35:07;;;;;;;;;;;7.10;99.90;;;;;;5053294;28;19913;-56
2023/01/09 08:37:33;;;;;;;;;;;7.20;99.90;;;;;;5051838;28;19912;-56
2023/01/09 08:39:58;;;;;;;;;;;7.10;99.90;;;;;;5052839;28;19995;-54
2023/01/09 08:47:53;;;;;;;;;;;7.30;99.90;;;;;;5052749;28;19912;-55
2023/01/09 08:50:19;;;;;;;;;;;7.30;99.90;;;;;;5052670;28;20426;-56
2023/01/09 08:52:44;;;;;;;;;;;7.20;99.90;;;;;;5052757;28;20296;-55
2023/01/09 08:55:10;;;;;;;;;;;7.20;99.90;;;;;;5052702;28;19913;-57
2023/01/09 08:57:36;;;;;;;;;;;7.20;99.90;;;;;;5052724;28;19916;-55
2023/01/09 09:00:01;;;;;;;;;;;7.10;99.90;;;;;;5052518;28;19991;-57
2023/01/09 09:02:27;;;;;;;;;;;7.10;99.90;;;;;;5052828;28;19912;-57
2023/01/09 09:07:25;;;;;;;;;;;7.10;99.90;;;;;;5048843;28;19924;-52
2023/01/09 09:09:52;;;;;;;;;;;7.10;99.90;;;;;;5052059;28;20015;-54
2023/01/09 09:12:17;;;;;;;;;;;7.00;99.90;;;;;;5052581;28;19913;-53
2023/01/09 09:17:27;;;;;;;;;;;7.00;99.90;;;;;;5052195;28;19916;-54
2023/01/09 09:19:53;;;;;;;;;;;7.00;99.90;;;;;;5052101;28;19909;-56
2023/01/09 09:22:19;;;;;;;;;;;7.10;99.90;;;;;;5052343;28;19908;-55
2023/01/09 09:24:44;;;;;;;;;;;7.10;99.90;;;;;;5052215;28;19909;-54
2023/01/09 09:27:10;;;;;;;;;;;7.20;99.90;;;;;;5051957;28;19948;-54
2023/01/09 09:29:35;;;;;;;;;;;7.20;99.90;;;;;;5052251;28;19904;-53
2023/01/09 09:32:01;;;;;;;;;;;7.20;99.90;;;;;;5051908;28;20311;-52
2023/01/09 09:34:26;;;;;;;;;;;7.20;99.90;;;;;;5051843;28;19909;-53
2023/01/09 09:36:52;;;;;;;;;;;7.40;99.90;;;;;;5051684;28;19912;-53
2023/01/09 09:39:18;;;;;;;;;;;7.40;99.90;;;;;;5051985;28;20361;-54
2023/01/09 09:45:05;;;;;;;;;;;7.50;99.90;;;;;;5051220;28;19913;-54
2023/01/09 09:47:31;;;;;;;;;;;7.60;99.90;;;;;;5051574;28;19909;-53
2023/01/09 09:50:03;;;;;;;;;;;7.70;99.90;;;;;;5051675;28;20543;-55
2023/01/09 09:52:40;;;;;;;;;;;7.70;99.90;;;;;;5051699;28;19948;-54
2023/01/09 09:55:22;;;;;;;;;;;7.80;99.90;;;;;;5051578;28;19920;-55
2023/01/09 09:57:48;;;;;;;;;;;7.80;99.90;;;;;;5051505;28;19913;-54
2023/01/09 10:00:18;;;;;;;;;;;7.80;99.90;;;;;;5051584;28;19913;-54
2023/01/09 10:02:46;;;;;;;;;;;7.80;99.90;;;;;;5051686;28;20120;-54
2023/01/09 10:05:30;;;;;;;;;;;7.90;99.90;;;;;;5051456;28;19909;-54
2023/01/09 10:08:01;;;;;;;;;;;7.90;99.90;;;;;;5051276;28;19913;-54
2023/01/09 10:10:47;;;;;;;;;;;7.90;99.90;;;;;;5051153;28;19919;-54
2023/01/09 10:16:02;;;;;;;;;;;8.00;99.90;;;;;;5051052;28;20300;-52
2023/01/09 10:18:34;;;;;;;;;;;8.10;99.90;;;;;;5051197;28;19955;-53
2023/01/09 10:21:11;;;;;;;;;;;8.10;99.90;;;;;;5051286;28;19909;-54
2023/01/09 10:24:00;;;;;;;;;;;8.20;99.90;;;;;;5051355;28;19916;-55
2023/01/09 10:26:33;;;;;;;;;;;8.30;99.90;;;;;;5050874;28;19932;-54
2023/01/09 10:29:06;;;;;;;;;;;8.40;99.90;;;;;;5051193;28;19908;-55
2023/01/09 10:31:35;;;;;;;;;;;8.40;99.90;;;;;;5051122;28;20028;-51
2023/01/09 10:34:00;;;;;;;;;;;8.40;99.90;;;;;;5051227;28;19908;-54
2023/01/09 10:36:33;;;;;;;;;;;8.40;99.90;;;;;;5050779;28;20277;-55
2023/01/09 10:39:03;;;;;;;;;;;8.50;99.90;;;;;;5050948;28;20160;-55
2023/01/09 10:41:46;;;;;;;;;;;8.50;99.90;;;;;;5050959;28;19993;-56
2023/01/09 10:44:12;;;;;;;;;;;8.50;99.90;;;;;;5051206;28;20334;-54
2023/01/09 10:46:42;;;;;;;;;;;8.50;99.90;;;;;;5050571;28;20078;-54
2023/01/09 10:49:11;;;;;;;;;;;8.50;99.90;;;;;;5050825;28;20358;-53
2023/01/09 10:51:42;;;;;;;;;;;8.50;99.90;;;;;;5050834;28;19912;-54
2023/01/09 10:54:20;;;;;;;;;;;8.60;99.90;;;;;;5050890;28;20411;-54
2023/01/09 10:56:58;;;;;;;;;;;8.60;99.90;;;;;;5050702;28;20292;-53
2023/01/09 10:59:24;;;;;;;;;;;8.60;99.90;;;;;;5051429;28;19908;-55
2023/01/09 11:01:50;;;;;;;;;;;8.60;99.90;;;;;;5054850;28;20403;-53
2023/01/09 11:04:25;;;;;;;;;;;8.60;99.90;;;;;;5054912;28;20434;-57
2023/01/09 11:06:57;;;;;;;;;;;8.60;99.90;;;;;;5054534;28;20301;-54
2023/01/09 11:09:23;;;;;;;;;;;8.60;99.90;;;;;;5054639;28;20426;-54
2023/01/09 11:11:48;;;;;;;;;;;8.60;99.90;;;;;;5054688;28;20023;-55
2023/01/09 11:14:32;;;;;;;;;;;8.60;99.90;;;;;;5054630;28;19978;-55
2023/01/09 11:17:00;;;;;;;;;;;8.60;99.90;;;;;;5054363;28;20385;-53
2023/01/09 11:19:26;;;;;;;;;;;8.60;99.90;;;;;;5054559;28;19962;-56
2023/01/09 11:22:05;;;;;;;;;;;8.50;99.90;;;;;;5054715;28;19909;-54
2023/01/09 11:24:31;;;;;;;;;;;8.50;99.90;;;;;;5054619;28;19915;-54
2023/01/09 11:27:11;;;;;;;;;;;8.40;99.90;;;;;;5054164;28;19905;-54
2023/01/09 11:29:37;;;;;;;;;;;8.40;99.90;;;;;;5054371;28;19916;-53
2023/01/09 11:32:03;;;;;;;;;;;8.40;99.90;;;;;;5054500;28;19959;-54
2023/01/09 11:34:30;;;;;;;;;;;8.40;99.90;;;;;;5054479;28;19952;-53
2023/01/09 11:37:05;;;;;;;;;;;8.40;99.90;;;;;;5054077;28;20183;-54
2023/01/09 11:39:32;;;;;;;;;;;8.40;99.90;;;;;;5053953;28;20317;-54
2023/01/09 11:41:58;;;;;;;;;;;8.40;99.90;;;;;;5054368;28;19909;-53
2023/01/09 11:44:24;;;;;;;;;;;8.40;99.90;;;;;;5054301;28;19909;-56
2023/01/09 11:46:50;;;;;;;;;;;8.30;99.90;;;;;;5053974;28;19912;-53
2023/01/09 11:49:16;;;;;;;;;;;8.40;99.90;;;;;;5054331;28;19916;-54
2023/01/09 11:51:43;;;;;;;;;;;8.30;99.90;;;;;;5054052;28;20331;-53
2023/01/09 11:54:18;;;;;;;;;;;8.30;99.90;;;;;;5053930;28;19947;-54
2023/01/09 11:56:44;;;;;;;;;;;8.20;99.90;;;;;;5053722;28;20265;-55
2023/01/09 11:59:11;;;;;;;;;;;8.20;99.90;;;;;;5053776;28;19908;-55
2023/01/09 12:01:53;;;;;;;;;;;8.10;99.90;;;;;;5053809;28;19991;-56
2023/01/09 12:04:37;;;;;;;;;;;8.00;99.90;;;;;;5053883;28;19909;-54
2023/01/09 12:07:18;;;;;;;;;;;8.00;99.90;;;;;;5053358;28;19921;-55
2023/01/09 12:10:02;;;;;;;;;;;8.10;99.90;;;;;;5053451;28;19952;-55
2023/01/09 12:13:03;;;;;;;;;;;8.10;99.90;;;;;;5053606;28;19935;-56
2023/01/09 12:15:49;;;;;;;;;;;8.10;99.90;;;;;;4972144;28;19914;-57
2023/01/09 12:18:22;;;;;;;;;;;8.10;99.90;;;;;;5047192;28;20266;-55
2023/01/09 12:21:06;;;;;;;;;;;8.10;99.90;;;;;;5053309;28;19986;-56
2023/01/09 12:23:41;;;;;;;;;;;8.00;99.90;;;;;;5053443;28;19920;-54
2023/01/09 12:26:13;;;;;;;;;;;7.90;99.90;;;;;;5053306;28;19908;-54
2023/01/09 12:28:41;;;;;;;;;;;7.90;99.90;;;;;;5053259;28;19969;-53
2023/01/09 12:31:18;;;;;;;;;;;7.90;99.90;;;;;;5053256;28;19908;-55
2023/01/09 12:33:59;;;;;;;;;;;7.80;99.90;;;;;;5053216;28;20296;-54
2023/01/09 12:36:44;;;;;;;;;;;7.90;99.90;;;;;;5052872;28;19919;-53
2023/01/09 12:39:28;;;;;;;;;;;7.80;99.90;;;;;;5052950;28;19913;-55
2023/01/09 12:41:56;;;;;;;;;;;7.70;99.90;;;;;;5053004;28;19942;-54
2023/01/09 12:44:25;;;;;;;;;;;7.70;99.90;;;;;;5053026;28;19919;-54
2023/01/09 12:46:57;;;;;;;;;;;7.70;99.90;;;;;;5053081;28;19912;-54
2023/01/09 12:49:45;;;;;;;;;;;7.70;99.90;;;;;;5052876;28;19909;-56
2023/01/09 12:52:16;;;;;;;;;;;7.70;99.90;;;;;;5052815;28;19916;-54
2023/01/09 12:54:48;;;;;;;;;;;7.70;99.90;;;;;;5052821;28;20164;-54
2023/01/09 12:57:16;;;;;;;;;;;7.90;99.90;;;;;;5052480;28;19913;-54
2023/01/09 12:59:46;;;;;;;;;;;8.00;99.90;;;;;;5052612;28;19912;-52
2023/01/09 13:02:18;;;;;;;;;;;8.10;99.90;;;;;;5052732;28;20049;-53
2023/01/09 13:04:53;;;;;;;;;;;8.20;99.90;;;;;;5052527;28;20003;-55
2023/01/09 13:07:27;;;;;;;;;;;8.20;99.90;;;;;;5052424;28;19913;-54
2023/01/09 13:09:59;;;;;;;;;;;8.20;99.90;;;;;;5052471;28;20373;-56
2023/01/09 13:12:26;;;;;;;;;;;8.10;99.90;;;;;;5052510;28;19908;-53
2023/01/09 13:14:52;;;;;;;;;;;8.00;99.90;;;;;;5052364;28;19908;-54
2023/01/09 13:17:20;;;;;;;;;;;8.00;99.90;;;;;;5052155;28;19909;-53
2023/01/09 13:19:46;;;;;;;;;;;8.00;99.90;;;;;;5052260;28;20327;-54
2023/01/09 13:22:12;;;;;;;;;;;8.00;99.90;;;;;;5051682;28;19920;-57
2023/01/09 13:24:50;;;;;;;;;;;7.90;99.90;;;;;;5052328;28;20365;-51
2023/01/09 13:27:18;;;;;;;;;;;8.00;99.90;;;;;;5052032;28;20301;-53
2023/01/09 13:29:46;;;;;;;;;;;8.00;99.90;;;;;;5051894;28;20331;-53
2023/01/09 13:32:14;;;;;;;;;;;8.00;99.90;;;;;;5052333;28;19909;-53
2023/01/09 13:34:43;;;;;;;;;;;7.90;99.90;;;;;;5052071;28;19908;-55
2023/01/09 13:37:19;;;;;;;;;;;7.90;99.90;;;;;;5051850;28;19920;-55
2023/01/09 13:39:53;;;;;;;;;;;7.90;99.90;;;;;;5050630;28;20296;-51
2023/01/09 13:42:38;;;;;;;;;;;7.90;99.90;;;;;;5051951;28;19931;-53
2023/01/09 13:45:09;;;;;;;;;;;8.00;99.90;;;;;;5052012;28;20681;-53
2023/01/09 13:47:35;;;;;;;;;;;7.90;99.90;;;;;;5051927;28;20355;-52
2023/01/09 13:50:19;;;;;;;;;;;7.90;99.90;;;;;;5051670;28;19992;-53
2023/01/09 13:52:45;;;;;;;;;;;8.00;99.90;;;;;;5051626;28;20011;-55
2023/01/09 13:55:10;;;;;;;;;;;8.00;99.90;;;;;;5051571;28;20015;-55
2023/01/09 13:57:55;;;;;;;;;;;8.00;99.90;;;;;;5051513;28;20360;-55
2023/01/09 14:00:20;;;;;;;;;;;8.00;99.90;;;;;;5051338;28;20418;-54
2023/01/09 14:02:47;;;;;;;;;;;8.10;99.90;;;;;;5051538;28;19909;-55
2023/01/09 14:05:14;;;;;;;;;;;8.00;99.90;;;;;;5051323;28;19909;-53
2023/01/09 14:07:48;;;;;;;;;;;8.00;99.90;;;;;;5051355;28;19918;-55
2023/01/09 14:10:24;;;;;;;;;;;8.10;99.90;;;;;;5051233;28;19916;-53
2023/01/09 14:12:53;;;;;;;;;;;8.10;99.90;;;;;;5051571;28;19908;-55
2023/01/09 14:15:27;;;;;;;;;;;8.00;99.90;;;;;;5051408;28;19912;-52
2023/01/09 14:18:01;;;;;;;;;;;8.00;99.90;;;;;;5051162;28;19912;-52
2023/01/09 14:20:34;;;;;;;;;;;8.10;99.90;;;;;;5050992;28;19913;-51
2023/01/09 14:23:00;;;;;;;;;;;8.10;99.90;;;;;;5051527;28;20107;-53
2023/01/09 14:25:28;;;;;;;;;;;8.10;99.90;;;;;;5051211;28;19928;-54
2023/01/09 14:27:54;;;;;;;;;;;8.20;99.90;;;;;;5051072;28;20391;-54
2023/01/09 14:30:25;;;;;;;;;;;8.20;99.90;;;;;;5050875;28;19912;-55
2023/01/09 14:32:55;;;;;;;;;;;8.20;99.90;;;;;;5051337;28;19912;-56
2023/01/09 14:35:31;;;;;;;;;;;8.20;99.90;;;;;;5049929;28;20007;-52
2023/01/09 14:38:05;;;;;;;;;;;8.20;99.90;;;;;;5050844;28;20011;-53
2023/01/09 14:40:31;;;;;;;;;;;8.10;99.90;;;;;;5050773;28;19943;-54
2023/01/09 14:42:59;;;;;;;;;;;8.00;99.90;;;;;;5051083;28;19915;-54
2023/01/09 14:45:25;;;;;;;;;;;8.10;99.90;;;;;;5050972;28;20332;-54
2023/01/09 14:47:56;;;;;;;;;;;8.10;99.90;;;;;;5049715;28;20280;-54
2023/01/09 14:50:28;;;;;;;;;;;8.10;99.90;;;;;;5051235;28;19912;-57
2023/01/09 14:53:06;;;;;;;;;;;8.00;99.90;;;;;;5050963;28;19909;-56
2023/01/09 14:55:40;;;;;;;;;;;8.00;99.90;;;;;;5050844;28;19966;-55
2023/01/09 14:58:25;;;;;;;;;;;8.00;99.90;;;;;;5050670;28;19920;-54
2023/01/09 15:01:14;;;;;;;;;;;8.00;99.90;;;;;;5036818;28;19909;-53